createdAt,value
2023-03-11T00:00:16.792Z,11.27
2023-03-11T00:02:44.836Z,7.85
2023-03-11T00:05:17.493Z,3.33
2023-03-11T00:07:47.152Z,7.45
2023-03-11T00:10:16.701Z,3.28
2023-03-11T00:12:44.878Z,4.20
2023-03-11T00:15:13.298Z,11.52
2023-03-11T00:17:41.791Z,4.55
2023-03-11T00:20:17.476Z,2.97
2023-03-11T00:22:46.939Z,7.32
2023-03-11T00:25:15.765Z,14.00
2023-03-11T00:27:44.124Z,4.47
2023-03-11T00:30:13.416Z,6.47
2023-03-11T00:32:41.795Z,9.68
2023-03-11T00:35:13.491Z,9.20
2023-03-11T00:37:41.708Z,4.18
2023-03-11T00:40:13.760Z,5.97
2023-03-11T00:42:41.871Z,4.35
2023-03-11T00:45:12.332Z,5.65
2023-03-11T00:47:40.341Z,6.78
2023-03-11T00:50:12.228Z,9.75
2023-03-11T00:52:40.096Z,10.32
2023-03-11T00:55:08.758Z,8.55
2023-03-11T00:57:38.015Z,8.85
2023-03-11T01:00:11.540Z,8.70
2023-03-11T01:02:39.905Z,9.20
2023-03-11T01:05:08.803Z,4.72
2023-03-11T01:07:36.994Z,12.35
2023-03-11T01:10:06.589Z,4.67
2023-03-11T01:15:06.093Z,5.47
2023-03-11T01:17:34.131Z,7.10
2023-03-11T01:20:02.135Z,14.32
2023-03-11T01:22:32.942Z,5.47
2023-03-11T01:25:00.890Z,8.85
2023-03-11T01:27:29.439Z,7.80
2023-03-11T01:29:57.418Z,7.43
2023-03-11T01:32:26.924Z,10.68
2023-03-11T01:34:54.847Z,11.75
2023-03-11T01:37:22.818Z,10.75
2023-03-11T01:39:50.812Z,10.57
2023-03-11T01:42:18.698Z,6.35
2023-03-11T01:44:46.652Z,4.80
2023-03-11T01:47:37.607Z,7.82
2023-03-11T01:50:10.590Z,10.13
2023-03-11T01:52:39.057Z,14.05
2023-03-11T01:55:08.244Z,8.20
2023-03-11T02:00:10.218Z,12.50
2023-03-11T02:02:46.099Z,11.63
2023-03-11T02:05:15.099Z,9.63
2023-03-11T02:07:43.089Z,8.38
2023-03-11T02:10:14.976Z,12.68
2023-03-11T02:12:43.619Z,8.57
2023-03-11T02:15:13.095Z,8.95
2023-03-11T02:17:44.323Z,8.23
2023-03-11T02:20:24.788Z,11.00
2023-03-11T02:22:57.093Z,9.25
2023-03-11T02:25:33.344Z,15.75
2023-03-11T02:28:05.809Z,12.25
2023-03-11T02:30:35.095Z,11.73
2023-03-11T02:33:04.675Z,9.05
2023-03-11T02:35:32.701Z,8.23
2023-03-11T02:38:01.586Z,7.20
2023-03-11T02:40:42.401Z,9.10
2023-03-11T02:43:14.743Z,7.35
2023-03-11T02:45:46.201Z,7.97
2023-03-11T02:48:15.491Z,6.60
2023-03-11T02:50:45.345Z,14.40
2023-03-11T02:53:13.342Z,13.68
2023-03-11T02:55:41.394Z,7.43
2023-03-11T02:58:09.611Z,8.05
2023-03-11T03:00:39.445Z,10.82
2023-03-11T03:03:08.838Z,6.53
2023-03-11T03:05:37.794Z,9.98
2023-03-11T03:08:06.281Z,10.52
2023-03-11T03:10:34.206Z,8.43
2023-03-11T03:13:02.304Z,9.77
2023-03-11T03:15:30.447Z,8.80
2023-03-11T03:17:59.827Z,3.88
2023-03-11T03:20:28.060Z,10.95
2023-03-11T03:23:00.112Z,9.65
2023-03-11T03:25:31.062Z,8.05
2023-03-11T03:28:02.471Z,10.50
2023-03-11T03:30:32.560Z,9.95
2023-03-11T03:33:02.028Z,15.15
2023-03-11T03:35:31.648Z,11.68
2023-03-11T03:38:11.407Z,8.73
2023-03-11T03:40:40.391Z,5.60
2023-03-11T03:43:09.254Z,7.68
2023-03-11T03:45:38.447Z,9.75
2023-03-11T03:48:08.633Z,8.00
2023-03-11T03:50:41.664Z,10.75
2023-03-11T03:53:13.257Z,7.47
2023-03-11T03:55:41.776Z,9.52
2023-03-11T03:58:10.827Z,16.50
2023-03-11T04:00:39.365Z,8.05
2023-03-11T04:03:08.646Z,13.95
2023-03-11T04:05:46.042Z,11.18
2023-03-11T04:08:15.209Z,7.00
2023-03-11T04:10:43.541Z,12.88
2023-03-11T04:13:11.535Z,10.13
2023-03-11T04:15:39.827Z,15.98
2023-03-11T04:18:09.520Z,12.48
2023-03-11T04:20:39.885Z,12.75
2023-03-11T04:23:07.747Z,10.40
2023-03-11T04:25:35.598Z,9.38
2023-03-11T04:28:03.920Z,10.60
2023-03-11T04:33:01.977Z,9.15
2023-03-11T04:35:31.296Z,12.88
2023-03-11T04:38:00.789Z,10.73
2023-03-11T04:40:28.821Z,11.18
2023-03-11T04:42:56.759Z,7.03
2023-03-11T04:45:25.152Z,8.60
2023-03-11T04:47:56.335Z,14.93
2023-03-11T04:50:24.778Z,9.60
2023-03-11T04:52:54.528Z,8.68
2023-03-11T04:55:23.053Z,15.32
2023-03-11T04:57:51.023Z,10.95
2023-03-11T05:00:22.933Z,8.27
2023-03-11T05:02:52.799Z,7.97
2023-03-11T05:05:20.802Z,8.27
2023-03-11T05:07:49.260Z,10.05
2023-03-11T05:10:22.488Z,8.32
2023-03-11T05:12:53.726Z,8.98
2023-03-11T05:15:23.970Z,8.38
2023-03-11T05:17:52.142Z,9.70
2023-03-11T05:20:20.200Z,11.27
2023-03-11T05:22:48.174Z,12.48
2023-03-11T05:25:16.178Z,12.80
2023-03-11T05:27:46.263Z,11.98
2023-03-11T05:30:16.202Z,10.05
2023-03-11T05:32:45.796Z,8.43
2023-03-11T05:35:14.075Z,10.15
2023-03-11T05:37:42.088Z,10.00
2023-03-11T05:40:12.479Z,9.10
2023-03-11T05:42:41.767Z,7.45
2023-03-11T05:45:12.859Z,13.30
2023-03-11T05:47:42.449Z,9.27
2023-03-11T05:50:13.597Z,8.25
2023-03-11T05:52:42.836Z,11.85
2023-03-11T05:55:12.269Z,11.73
2023-03-11T05:57:42.178Z,9.23
2023-03-11T06:00:12.923Z,20.30
2023-03-11T06:02:48.599Z,16.02
2023-03-11T06:05:19.294Z,10.00
2023-03-11T06:07:49.267Z,9.07
2023-03-11T06:10:17.854Z,20.75
2023-03-11T06:15:21.771Z,8.27
2023-03-11T06:17:50.111Z,12.77
2023-03-11T06:20:19.127Z,10.45
2023-03-11T06:22:49.351Z,8.90
2023-03-11T06:25:18.012Z,10.48
2023-03-11T06:27:51.486Z,7.45
2023-03-11T06:30:21.669Z,11.20
2023-03-11T06:32:59.574Z,11.23
2023-03-11T06:35:27.561Z,15.20
2023-03-11T06:37:56.557Z,6.65
2023-03-11T06:40:24.451Z,9.95
2023-03-11T06:42:52.424Z,7.80
2023-03-11T06:45:24.098Z,7.90
2023-03-11T06:47:53.338Z,10.57
2023-03-11T06:50:24.030Z,15.50
2023-03-11T06:52:53.110Z,6.18
2023-03-11T06:55:21.410Z,12.93
2023-03-11T06:57:49.334Z,7.20
2023-03-11T07:00:18.648Z,9.00
2023-03-11T07:02:53.755Z,8.40
2023-03-11T07:05:22.260Z,4.13
2023-03-11T07:07:55.917Z,5.05
2023-03-11T07:10:25.301Z,9.00
2023-03-11T07:12:53.236Z,12.48
2023-03-11T07:15:21.103Z,8.68
2023-03-11T07:17:49.025Z,5.80
2023-03-11T07:20:19.189Z,11.88
2023-03-11T07:22:47.003Z,6.78
2023-03-11T07:25:14.925Z,6.68
2023-03-11T07:27:42.747Z,4.28
2023-03-11T07:30:11.910Z,11.40
2023-03-11T07:32:39.800Z,7.22
2023-03-11T07:35:08.878Z,9.73
2023-03-11T07:37:38.062Z,11.07
2023-03-11T07:40:06.765Z,11.15
2023-03-11T07:42:34.969Z,10.55
2023-03-11T07:45:02.854Z,7.28
2023-03-11T07:47:31.133Z,8.18
2023-03-11T07:49:58.967Z,10.73
2023-03-11T07:52:26.777Z,7.18
2023-03-11T07:54:56.182Z,8.35
2023-03-11T07:59:51.903Z,10.63
2023-03-11T08:02:19.803Z,12.20
2023-03-11T08:04:47.766Z,8.68
2023-03-11T08:07:15.605Z,5.88
2023-03-11T08:09:43.481Z,11.05
2023-03-11T08:12:12.855Z,8.43
2023-03-11T08:14:41.158Z,8.70
2023-03-11T08:17:09.053Z,10.43
2023-03-11T08:19:36.969Z,8.10
2023-03-11T08:22:05.355Z,8.23
2023-03-11T08:24:33.350Z,10.27
2023-03-11T08:27:01.240Z,8.48
2023-03-11T08:29:30.467Z,9.85
2023-03-11T08:34:27.586Z,4.82
2023-03-11T08:36:55.812Z,11.05
2023-03-11T08:39:23.974Z,7.05
2023-03-11T08:41:51.843Z,9.52
2023-03-11T08:44:19.707Z,9.13
2023-03-11T08:46:49.250Z,6.88
2023-03-11T08:49:17.189Z,9.35
2023-03-11T08:51:45.040Z,8.80
2023-03-11T08:54:12.920Z,4.38
2023-03-11T08:56:40.770Z,10.43
2023-03-11T08:59:09.151Z,5.85
2023-03-11T09:01:37.052Z,5.43
2023-03-11T09:04:06.582Z,9.95
2023-03-11T09:06:34.448Z,6.50
2023-03-11T09:09:02.472Z,7.30
2023-03-11T09:11:30.875Z,7.72
2023-03-11T09:13:58.718Z,5.13
2023-03-11T09:16:26.795Z,9.05
2023-03-11T09:18:54.882Z,6.18
2023-03-11T09:21:24.179Z,6.38
2023-03-11T09:23:52.087Z,5.93
2023-03-11T09:26:19.976Z,3.70
2023-03-11T09:28:49.299Z,7.80
2023-03-11T09:31:17.625Z,7.63
2023-03-11T09:33:46.476Z,4.13
2023-03-11T09:36:16.451Z,6.57
2023-03-11T09:38:46.067Z,4.15
2023-03-11T09:41:23.820Z,6.35
2023-03-11T09:44:06.149Z,4.75
2023-03-11T09:46:59.179Z,3.67
2023-03-11T09:49:36.126Z,5.35
2023-03-11T09:52:10.241Z,7.47
2023-03-11T09:54:42.087Z,4.90
2023-03-11T09:57:16.118Z,4.88
2023-03-11T09:59:44.934Z,4.78
2023-03-11T10:02:16.951Z,6.32
2023-03-11T10:04:52.780Z,7.15
2023-03-11T10:07:25.655Z,9.30
2023-03-11T10:09:56.928Z,5.65
2023-03-11T10:12:40.973Z,2.88
2023-03-11T10:15:18.817Z,6.95
2023-03-11T10:18:11.934Z,3.47
2023-03-11T10:20:46.862Z,5.82
2023-03-11T10:23:25.655Z,3.75
2023-03-11T10:26:04.022Z,2.90
2023-03-11T10:28:36.534Z,3.80
2023-03-11T10:31:14.474Z,3.72
2023-03-11T10:33:47.931Z,5.07
2023-03-11T10:36:23.965Z,3.65
2023-03-11T10:38:53.621Z,1.98
2023-03-11T10:41:27.534Z,0.85
2023-03-11T10:44:01.097Z,3.55
2023-03-11T10:46:29.958Z,3.50
2023-03-11T10:48:58.184Z,3.13
2023-03-11T10:51:27.795Z,2.55
2023-03-11T10:53:57.496Z,3.85
2023-03-11T10:56:30.109Z,4.75
2023-03-11T10:58:58.676Z,7.43
2023-03-11T11:01:28.882Z,3.00
2023-03-11T11:04:00.802Z,3.20
2023-03-11T11:06:30.652Z,5.53
2023-03-11T11:09:25.685Z,2.85
2023-03-11T11:12:07.962Z,4.95
2023-03-11T11:14:46.965Z,1.73
2023-03-11T11:17:20.644Z,2.30
2023-03-11T11:19:50.949Z,3.55
2023-03-11T11:22:21.231Z,1.63
2023-03-11T11:24:52.283Z,6.72
2023-03-11T11:27:23.681Z,2.92
2023-03-11T11:30:15.135Z,8.13
2023-03-11T11:32:43.510Z,6.38
2023-03-11T11:35:14.077Z,2.13
2023-03-11T11:37:44.503Z,2.45
2023-03-11T11:40:24.387Z,3.40
2023-03-11T11:42:56.979Z,1.40
2023-03-11T11:45:33.730Z,5.55
2023-03-11T11:48:06.586Z,4.00
2023-03-11T11:50:36.760Z,4.70
2023-03-11T11:53:14.163Z,1.27
2023-03-11T11:55:48.065Z,5.63
2023-03-11T11:58:17.439Z,3.53
2023-03-11T12:03:40.020Z,2.72
2023-03-11T12:08:46.377Z,4.72
2023-03-11T12:11:20.137Z,5.25
2023-03-11T12:13:54.886Z,5.72
2023-03-11T12:16:32.740Z,2.22
2023-03-11T12:19:05.122Z,3.67
2023-03-11T12:21:48.433Z,4.93
2023-03-11T12:24:39.569Z,4.10
2023-03-11T12:27:16.298Z,5.38
2023-03-11T12:29:48.450Z,3.47
2023-03-11T12:32:25.981Z,4.35
2023-03-11T12:34:54.105Z,3.38
2023-03-11T12:37:24.380Z,1.75
2023-03-11T12:39:52.326Z,5.60
2023-03-11T12:42:22.471Z,4.68
2023-03-11T12:44:53.775Z,4.57
2023-03-11T12:47:24.267Z,2.83
2023-03-11T12:49:54.816Z,7.22
2023-03-11T12:52:34.327Z,2.83
2023-03-11T12:55:38.707Z,4.03
2023-03-11T12:58:32.990Z,3.90
2023-03-11T13:01:26.764Z,3.17
2023-03-11T13:04:03.969Z,5.95
2023-03-11T13:06:57.365Z,4.10
2023-03-11T13:09:25.820Z,2.80
2023-03-11T13:11:53.748Z,3.30
2023-03-11T13:14:32.855Z,3.17
2023-03-11T13:17:27.417Z,4.40
2023-03-11T13:19:57.347Z,3.80
2023-03-11T13:23:15.840Z,3.33
2023-03-11T13:25:45.475Z,1.70
2023-03-11T13:28:47.260Z,5.82
2023-03-11T13:31:22.363Z,3.38
2023-03-11T13:33:53.687Z,2.00
2023-03-11T13:37:00.964Z,3.72
2023-03-11T13:39:55.185Z,3.17
2023-03-11T13:42:30.405Z,5.28
2023-03-11T13:44:58.791Z,2.80
2023-03-11T13:47:27.650Z,3.65
2023-03-11T13:50:03.660Z,2.92
2023-03-11T13:52:34.886Z,2.95
2023-03-11T13:55:06.415Z,3.92
2023-03-11T13:57:36.097Z,4.78
2023-03-11T14:00:17.705Z,10.60
2023-03-11T14:02:51.028Z,5.00
2023-03-11T14:05:24.470Z,7.65
2023-03-11T14:07:52.412Z,3.33
2023-03-11T14:10:26.214Z,4.85
2023-03-11T14:13:06.710Z,2.28
2023-03-11T14:15:44.325Z,2.90
2023-03-11T14:18:31.617Z,3.35
2023-03-11T14:21:01.561Z,3.55
2023-03-11T14:23:32.454Z,2.13
2023-03-11T14:26:02.422Z,4.28
2023-03-11T14:28:34.190Z,2.58
2023-03-11T14:31:06.385Z,5.75
2023-03-11T14:33:34.430Z,6.45
2023-03-11T14:36:08.030Z,5.93
2023-03-11T14:38:35.902Z,2.50
2023-03-11T14:41:06.689Z,1.67
2023-03-11T14:43:38.573Z,4.78
2023-03-11T14:46:08.334Z,5.35
2023-03-11T14:48:39.233Z,1.60
2023-03-11T14:51:14.963Z,7.40
2023-03-11T14:53:46.366Z,5.32
2023-03-11T14:56:18.890Z,3.05
2023-03-11T14:59:01.646Z,4.43
2023-03-11T15:01:36.714Z,2.33
2023-03-11T15:04:10.017Z,2.53
2023-03-11T15:06:41.480Z,2.47
2023-03-11T15:09:13.086Z,3.92
2023-03-11T15:11:48.762Z,2.67
2023-03-11T15:14:22.217Z,2.60
2023-03-11T15:16:50.715Z,5.60
2023-03-11T15:19:31.976Z,4.73
2023-03-11T15:22:07.176Z,4.00
2023-03-11T15:24:35.626Z,2.35
2023-03-11T15:27:05.721Z,5.33
2023-03-11T15:29:35.271Z,6.28
2023-03-11T15:32:36.171Z,3.08
2023-03-11T15:35:14.834Z,3.30
2023-03-11T15:37:44.678Z,2.08
2023-03-11T15:40:22.472Z,3.30
2023-03-11T15:43:22.120Z,4.78
2023-03-11T15:45:50.079Z,3.28
2023-03-11T15:48:17.937Z,8.82
2023-03-11T15:50:53.986Z,3.10
2023-03-11T15:53:24.837Z,5.15
2023-03-11T15:55:54.114Z,3.05
2023-03-11T15:58:22.674Z,1.77
2023-03-11T16:00:52.522Z,3.10
2023-03-11T16:03:21.098Z,3.33
2023-03-11T16:05:49.414Z,5.15
2023-03-11T16:08:17.458Z,4.95
2023-03-11T16:10:46.684Z,6.13
2023-03-11T16:13:16.083Z,3.75
2023-03-11T16:18:14.848Z,7.20
2023-03-11T16:20:45.060Z,3.55
2023-03-11T16:23:18.996Z,4.22
2023-03-11T16:25:49.129Z,2.97
2023-03-11T16:28:17.923Z,7.03
2023-03-11T16:30:46.590Z,5.63
2023-03-11T16:33:14.500Z,4.90
2023-03-11T16:35:42.437Z,8.15
2023-03-11T16:38:10.672Z,5.25
2023-03-11T16:40:38.568Z,9.68
2023-03-11T16:43:09.029Z,4.95
2023-03-11T16:45:37.413Z,3.80
2023-03-11T16:48:06.485Z,5.82
2023-03-11T16:50:37.304Z,6.28
2023-03-11T16:53:05.657Z,8.75
2023-03-11T16:55:33.560Z,9.82
2023-03-11T16:58:01.422Z,5.68
2023-03-11T17:00:30.788Z,6.93
2023-03-11T17:05:26.462Z,7.38
2023-03-11T17:07:57.118Z,9.35
2023-03-11T17:10:24.984Z,5.35
2023-03-11T17:12:53.193Z,3.45
2023-03-11T17:15:21.749Z,4.68
2023-03-11T17:17:51.450Z,3.00
2023-03-11T17:20:21.603Z,6.00
2023-03-11T17:22:49.652Z,2.78
2023-03-11T17:25:17.635Z,3.47
2023-03-11T17:27:45.499Z,1.80
2023-03-11T17:30:19.420Z,4.57
2023-03-11T17:32:53.843Z,4.15
2023-03-11T17:35:21.771Z,6.05
2023-03-11T17:37:49.724Z,5.50
2023-03-11T17:40:17.988Z,2.47
2023-03-11T17:42:45.836Z,3.83
2023-03-11T17:45:13.889Z,3.35
2023-03-11T17:47:41.739Z,7.68
2023-03-11T17:50:13.018Z,4.80
2023-03-11T17:52:40.897Z,2.70
2023-03-11T17:55:09.765Z,8.68
2023-03-11T17:57:45.204Z,10.68
2023-03-11T18:00:15.229Z,4.45
2023-03-11T18:05:12.569Z,2.95
2023-03-11T18:10:09.385Z,9.82
2023-03-11T18:12:37.796Z,7.03
2023-03-11T18:15:14.428Z,8.30
2023-03-11T18:17:42.392Z,7.32
2023-03-11T18:20:13.531Z,10.63
2023-03-11T18:22:44.369Z,5.30
2023-03-11T18:25:13.980Z,11.50
2023-03-11T18:27:42.001Z,11.27
2023-03-11T18:30:11.774Z,8.60
2023-03-11T18:32:39.713Z,8.05
2023-03-11T18:35:08.462Z,5.70
2023-03-11T18:37:37.735Z,7.25
2023-03-11T18:40:07.161Z,5.22
2023-03-11T18:45:03.166Z,6.07
2023-03-11T18:47:34.582Z,11.57
2023-03-11T18:50:03.351Z,14.80
2023-03-11T18:52:31.253Z,12.48
2023-03-11T18:55:00.490Z,22.00
2023-03-11T18:57:28.449Z,15.50
2023-03-11T18:59:56.264Z,15.90
2023-03-11T19:02:24.300Z,10.82
2023-03-11T19:04:52.172Z,13.95
2023-03-11T19:07:20.068Z,17.75
2023-03-11T19:09:49.901Z,12.48
2023-03-11T19:12:19.127Z,11.45
2023-03-11T19:14:47.040Z,18.60
2023-03-11T19:17:16.472Z,21.55
2023-03-11T19:22:12.105Z,18.33
2023-03-11T19:24:40.043Z,15.32
2023-03-11T19:27:07.937Z,15.50
2023-03-11T19:29:37.238Z,13.23
2023-03-11T19:34:32.985Z,14.80
2023-03-11T19:37:00.810Z,11.48
2023-03-11T19:39:28.632Z,10.05
2023-03-11T19:41:56.764Z,14.88
2023-03-11T19:44:24.685Z,18.65
2023-03-11T19:46:53.948Z,14.65
2023-03-11T19:49:21.996Z,12.23
2023-03-11T19:51:50.756Z,9.50
2023-03-11T19:54:19.014Z,8.73
2023-03-11T19:56:47.998Z,10.00
2023-03-11T19:59:16.024Z,10.63
2023-03-11T20:01:43.971Z,9.23
2023-03-11T20:04:15.071Z,12.05
2023-03-11T20:06:43.636Z,11.60
2023-03-11T20:09:12.622Z,15.32
2023-03-11T20:11:41.178Z,11.85
2023-03-11T20:14:10.756Z,13.67
2023-03-11T20:16:39.099Z,10.25
2023-03-11T20:19:07.556Z,11.05
2023-03-11T20:21:39.361Z,9.47
2023-03-11T20:24:08.131Z,12.20
2023-03-11T20:26:36.035Z,9.50
2023-03-11T20:29:04.259Z,15.43
2023-03-11T20:31:32.711Z,13.15
2023-03-11T20:34:00.936Z,10.55
2023-03-11T20:36:31.274Z,9.70
2023-03-11T20:39:00.934Z,10.32
2023-03-11T20:41:29.641Z,11.98
2023-03-11T20:43:58.397Z,9.00
2023-03-11T20:46:26.350Z,10.98
2023-03-11T20:48:54.300Z,6.80
2023-03-11T20:51:24.333Z,8.88
2023-03-11T20:53:52.551Z,9.85
2023-03-11T20:56:23.967Z,12.40
2023-03-11T20:58:52.429Z,9.80
2023-03-11T21:01:22.773Z,11.03
2023-03-11T21:03:51.010Z,8.20
2023-03-11T21:06:21.022Z,14.68
2023-03-11T21:08:49.172Z,10.02
2023-03-11T21:11:17.865Z,9.82
2023-03-11T21:13:47.324Z,12.20
2023-03-11T21:18:44.708Z,11.48
2023-03-11T21:21:15.618Z,11.40
2023-03-11T21:23:43.997Z,12.50
2023-03-11T21:26:13.362Z,10.73
2023-03-11T21:28:46.165Z,12.52
2023-03-11T21:31:17.991Z,14.32
2023-03-11T21:33:46.424Z,13.18
2023-03-11T21:36:15.681Z,12.83
2023-03-11T21:41:14.089Z,12.23
2023-03-11T21:43:43.243Z,10.85
2023-03-11T21:46:14.221Z,9.48
2023-03-11T21:48:44.056Z,12.68
2023-03-11T21:51:12.065Z,12.05
2023-03-11T21:53:40.035Z,15.70
2023-03-11T21:56:08.710Z,14.73
2023-03-11T21:58:37.141Z,15.75
2023-03-11T22:01:05.495Z,12.55
2023-03-11T22:03:35.726Z,11.47
2023-03-11T22:06:08.042Z,13.18
2023-03-11T22:08:36.516Z,12.60
2023-03-11T22:11:07.650Z,9.00
2023-03-11T22:13:35.624Z,11.55
2023-03-11T22:16:04.706Z,12.10
2023-03-11T22:18:32.734Z,10.95
2023-03-11T22:21:01.379Z,11.85
2023-03-11T22:23:30.606Z,8.70
2023-03-11T22:25:58.705Z,8.60
2023-03-11T22:28:26.605Z,12.48
2023-03-11T22:30:54.758Z,10.77
2023-03-11T22:33:22.623Z,8.73
2023-03-11T22:35:51.931Z,9.98
2023-03-11T22:40:48.960Z,11.30
2023-03-11T22:45:46.233Z,11.20
2023-03-11T22:48:14.296Z,8.60
2023-03-11T22:50:42.733Z,10.65
2023-03-11T22:53:10.670Z,8.17
2023-03-11T22:55:40.286Z,10.45
2023-03-11T22:58:09.949Z,7.22
2023-03-11T23:00:38.329Z,6.80
2023-03-11T23:03:06.528Z,5.53
2023-03-11T23:05:40.648Z,10.18
2023-03-11T23:08:09.264Z,6.65
2023-03-11T23:10:37.175Z,7.63
2023-03-11T23:13:05.003Z,8.10
2023-03-11T23:15:34.257Z,9.50
2023-03-11T23:18:02.230Z,5.88
2023-03-11T23:20:30.105Z,7.22
2023-03-11T23:22:57.980Z,8.88
2023-03-11T23:25:25.958Z,7.43
2023-03-11T23:27:53.936Z,7.50
2023-03-11T23:30:22.036Z,7.63
2023-03-11T23:32:51.272Z,8.68
2023-03-11T23:35:19.677Z,10.55
2023-03-11T23:37:49.021Z,5.88
2023-03-11T23:42:45.056Z,9.45
2023-03-11T23:45:13.017Z,7.03
2023-03-11T23:47:40.922Z,6.60
2023-03-11T23:50:11.315Z,4.88
2023-03-11T23:52:39.204Z,8.63
2023-03-11T23:55:08.279Z,7.50
2023-03-11T23:57:36.403Z,6.47
